Time;durP1;ratioP1;P1;durP2;ratioP2;P2;SDS_P1;SDS_P2;PMS_P1;PMS_P2;Temp;Humidity;BMP_temperature;BMP_pressure;BME280_temperature;BME280_humidity;BME280_pressure;Samples;Min_cycle;Max_cycle;Signal;HPM_P1;HPM_P2
2022/01/01 00:03:39;;;;;;;8.68;6.45;;;;;;;2.23;86.53;97163.53;10296029;28;96963;-73
2022/01/01 00:08:43;;;;;;;13.60;7.80;;;;;;;2.23;86.84;97163.53;10297489;28;96868;-73
2022/01/01 00:13:47;;;;;;;12.38;8.38;;;;;;;2.00;86.96;97174.09;10297998;28;96762;-73
2022/01/01 00:18:52;;;;;;;11.18;6.22;;;;;;;1.91;87.48;97168.47;10296305;28;96728;-73
2022/01/01 00:23:55;;;;;;;9.60;7.00;;;;;;;1.96;87.41;97162.28;10295093;28;96848;-73
2022/01/01 00:28:59;;;;;;;10.90;7.18;;;;;;;1.97;86.74;97153.63;10297286;28;96857;-73
2022/01/01 00:34:02;;;;;;;12.85;8.82;;;;;;;1.97;86.31;97151.88;10295743;28;96912;-73
2022/01/01 00:39:06;;;;;;;19.52;11.70;;;;;;;1.89;86.45;97149.66;10294494;28;97260;-73
2022/01/01 00:44:12;;;;;;;18.85;11.27;;;;;;;1.86;86.03;97149.81;10298440;28;96715;-73
2022/01/01 00:49:15;;;;;;;16.90;10.93;;;;;;;1.80;86.54;97154.41;10295765;28;97020;-73
2022/01/01 00:54:18;;;;;;;14.88;10.52;;;;;;;1.77;86.57;97159.72;10292004;28;100145;-73
2022/01/01 00:59:22;;;;;;;23.92;15.43;;;;;;;1.72;86.72;97152.19;10290921;28;96894;-73
2022/01/01 01:04:25;;;;;;;37.53;21.58;;;;;;;1.59;86.79;97143.34;10296491;28;96753;-73
2022/01/01 01:09:29;;;;;;;25.35;17.08;;;;;;;1.54;87.13;97154.72;10292201;28;96815;-73
2022/01/01 01:14:40;;;;;;;11.73;9.00;;;;;;;1.56;87.01;97147.75;10296734;28;96844;-73
2022/01/01 01:19:42;;;;;;;17.25;11.02;;;;;;;1.53;86.64;97141.91;10294635;28;96772;-73
2022/01/01 01:24:45;;;;;;;18.25;12.10;;;;;;;1.46;86.23;97153.38;10294584;28;96725;-73
2022/01/01 01:29:49;;;;;;;18.45;11.45;;;;;;;1.45;86.08;97151.69;10293585;28;96991;-73
2022/01/01 01:34:52;;;;;;;16.85;11.05;;;;;;;1.37;86.60;97157.22;10294456;28;101995;-73
2022/01/01 01:39:55;;;;;;;25.25;15.70;;;;;;;1.28;86.51;97157.59;10294555;28;98688;-73
2022/01/01 01:45:02;;;;;;;19.08;13.57;;;;;;;1.30;86.64;97160.97;10292518;28;100085;-73
2022/01/01 01:50:07;;;;;;;23.30;15.18;;;;;;;1.25;86.26;97163.72;10295742;28;96940;-73
2022/01/01 01:55:12;;;;;;;12.00;7.32;;;;;;;1.16;87.23;97159.00;10295138;28;97108;-73
2022/01/01 02:00:40;;;;;;;9.73;5.82;;;;;;;1.17;86.48;97164.09;10290082;28;97336;-73
2022/01/01 02:05:46;;;;;;;12.98;8.40;;;;;;;1.17;87.18;97161.50;10247307;28;96745;-73
2022/01/01 02:10:52;;;;;;;17.30;10.23;;;;;;;1.18;86.18;97163.16;10242656;28;96760;-73
2022/01/01 02:16:16;;;;;;;14.57;9.98;;;;;;;1.14;86.49;97161.63;10243626;28;96897;-73
2022/01/01 02:21:22;;;;;;;17.20;11.57;;;;;;;1.12;86.60;97160.88;10243111;28;96896;-73
2022/01/01 02:26:33;;;;;;;14.27;9.75;;;;;;;1.07;86.72;97167.09;10247133;28;96719;-73
2022/01/01 02:31:36;;;;;;;14.20;9.50;;;;;;;0.97;86.10;97164.09;10243434;28;97079;-73
2022/01/01 02:36:42;;;;;;;14.95;9.73;;;;;;;0.90;86.46;97158.38;10244431;28;96977;-73
2022/01/01 02:41:46;;;;;;;12.10;8.30;;;;;;;0.88;86.74;97161.91;10247002;28;96753;-73
2022/01/01 02:46:49;;;;;;;15.70;10.10;;;;;;;0.92;86.45;97155.75;10243412;28;96783;-73
2022/01/01 02:51:53;;;;;;;10.55;6.35;;;;;;;0.94;86.72;97151.38;10243193;28;96763;-73
2022/01/01 02:56:56;;;;;;;10.23;6.53;;;;;;;0.93;87.02;97153.09;10236295;28;97170;-73
2022/01/01 03:01:59;;;;;;;7.65;5.40;;;;;;;0.86;86.47;97156.00;10253657;28;97015;-73
2022/01/01 03:07:04;;;;;;;10.82;7.28;;;;;;;0.83;87.06;97150.97;10292175;28;96886;-73
2022/01/01 03:12:08;;;;;;;8.67;5.00;;;;;;;0.80;86.46;97150.22;10288802;28;97048;-73
2022/01/01 03:17:12;;;;;;;8.13;4.85;;;;;;;0.74;87.13;97152.19;10294552;28;96675;-73
2022/01/01 03:22:16;;;;;;;5.90;3.80;;;;;;;0.69;86.59;97149.84;10292158;28;96861;-73
2022/01/01 03:27:19;;;;;;;7.80;5.32;;;;;;;0.61;86.87;97147.56;10287288;28;96922;-73
2022/01/01 03:32:22;;;;;;;9.23;6.00;;;;;;;0.60;86.49;97145.91;10295560;28;97873;-73
2022/01/01 03:37:26;;;;;;;11.23;6.88;;;;;;;0.54;86.63;97150.47;10299170;28;97276;-73
2022/01/01 03:42:29;;;;;;;10.47;6.60;;;;;;;0.49;86.48;97154.97;10295542;28;96657;-73
2022/01/01 03:47:32;;;;;;;18.10;10.07;;;;;;;0.41;86.45;97156.13;10300047;28;96965;-73
2022/01/01 03:52:41;;;;;;;17.58;9.43;;;;;;;0.34;86.73;97157.28;10297192;28;99938;-73
2022/01/01 03:57:44;;;;;;;15.32;9.57;;;;;;;0.30;86.72;97158.28;10297154;28;96821;-73
2022/01/01 04:02:47;;;;;;;10.88;7.32;;;;;;;0.32;86.62;97161.63;10296868;28;99711;-73
2022/01/01 04:07:51;;;;;;;10.93;6.45;;;;;;;0.33;86.46;97162.47;10298175;28;96735;-73
2022/01/01 04:12:54;;;;;;;9.80;5.35;;;;;;;0.26;86.29;97156.75;10297151;28;98502;-73
2022/01/01 04:18:01;;;;;;;10.05;6.32;;;;;;;0.24;86.56;97161.94;10295485;28;96902;-73
2022/01/01 04:23:09;;;;;;;8.93;5.03;;;;;;;0.20;86.65;97156.97;10298284;28;96861;-73
2022/01/01 04:28:11;;;;;;;7.07;5.07;;;;;;;0.13;86.58;97161.53;10297738;28;97115;-73
2022/01/01 04:33:14;;;;;;;8.95;5.15;;;;;;;0.04;86.70;97157.59;10293169;28;96804;-73
2022/01/01 04:38:35;;;;;;;5.78;4.10;;;;;;;0.05;86.69;97156.69;10299366;28;96898;-73
2022/01/01 04:43:38;;;;;;;7.32;3.85;;;;;;;-0.02;86.50;97157.84;10294746;28;96868;-73
2022/01/01 04:48:40;;;;;;;8.10;5.13;;;;;;;-0.05;86.77;97157.94;10294661;28;97042;-73
2022/01/01 04:53:46;;;;;;;6.10;4.60;;;;;;;-0.06;86.71;97153.72;10295864;28;96861;-73
2022/01/01 04:58:48;;;;;;;9.88;5.00;;;;;;;-0.12;86.61;97153.97;10297851;28;97062;-73
2022/01/01 05:03:51;;;;;;;10.77;6.65;;;;;;;-0.16;86.67;97152.41;10294887;28;96684;-73
2022/01/01 05:08:55;;;;;;;12.52;8.25;;;;;;;-0.19;86.64;97158.50;10292819;28;96867;-73
2022/01/01 05:13:58;;;;;;;14.52;7.70;;;;;;;-0.23;86.72;97164.66;10296744;28;96862;-73
2022/01/01 05:19:01;;;;;;;13.43;7.35;;;;;;;-0.22;86.35;97157.78;10295147;28;96901;-73
2022/01/01 05:24:08;;;;;;;11.23;6.53;;;;;;;-0.21;86.35;97155.16;10292162;28;99673;-73
2022/01/01 05:29:10;;;;;;;11.02;6.85;;;;;;;-0.18;86.50;97141.34;10297395;28;96732;-73
2022/01/01 05:34:13;;;;;;;10.23;5.95;;;;;;;-0.25;86.18;97143.34;10293378;28;96929;-73
2022/01/01 05:39:17;;;;;;;9.52;5.60;;;;;;;-0.34;86.25;97148.81;10290293;28;96859;-73
2022/01/01 05:44:20;;;;;;;9.52;5.28;;;;;;;-0.34;86.50;97141.97;10289703;28;96962;-73
2022/01/01 05:49:23;;;;;;;8.77;5.35;;;;;;;-0.33;86.51;97146.19;10294346;28;97973;-73
2022/01/01 05:54:28;;;;;;;9.90;5.70;;;;;;;-0.39;86.52;97159.25;10290378;28;96823;-73
2022/01/01 05:59:31;;;;;;;;;;;;;;;-0.44;86.71;97150.03;10296203;28;97069;-73
2022/01/01 06:04:34;;;;;;;12.27;7.00;;;;;;;-0.45;86.74;97154.34;10293602;28;96995;-73
2022/01/01 06:09:39;;;;;;;9.48;6.18;;;;;;;-0.44;86.50;97161.16;10293058;28;97300;-73
2022/01/01 06:14:41;;;;;;;9.73;5.68;;;;;;;-0.49;86.38;97164.78;10293471;28;97735;-73
2022/01/01 06:19:44;;;;;;;10.30;6.95;;;;;;;-0.60;86.22;97162.63;10293224;28;96810;-73
2022/01/01 06:24:49;;;;;;;11.65;7.65;;;;;;;-0.68;86.45;97168.03;10292388;28;98693;-73
2022/01/01 06:29:52;;;;;;;12.88;8.70;;;;;;;-0.72;86.51;97167.31;10275094;28;96919;-73
2022/01/01 06:34:55;;;;;;;14.18;8.65;;;;;;;-0.67;86.39;97179.13;10292824;28;96700;-73
2022/01/01 06:40:06;;;;;;;12.60;8.68;;;;;;;-0.75;86.55;97175.13;10293302;28;99455;-73
2022/01/01 06:45:09;;;;;;;13.65;8.23;;;;;;;-0.71;86.57;97173.28;10289782;28;96716;-73
2022/01/01 06:50:12;;;;;;;11.25;8.45;;;;;;;-0.74;86.50;97174.22;10294810;28;96671;-73
2022/01/01 06:55:16;;;;;;;15.35;9.93;;;;;;;-0.75;86.88;97171.72;10292545;28;96883;-73
2022/01/01 07:00:19;;;;;;;20.50;12.63;;;;;;;-0.84;86.47;97183.16;10289140;28;96924;-73
2022/01/01 07:05:22;;;;;;;20.13;12.20;;;;;;;-0.84;86.59;97188.28;10294633;28;96899;-73
2022/01/01 07:10:26;;;;;;;17.20;9.93;;;;;;;-0.75;86.08;97185.38;10298147;28;96728;-73
2022/01/01 07:15:29;;;;;;;22.92;11.73;;;;;;;-0.71;86.67;97180.97;10295456;28;96809;-73
2022/01/01 07:20:32;;;;;;;17.17;8.85;;;;;;;-0.74;86.53;97189.59;10299926;28;102346;-73
2022/01/01 07:25:36;;;;;;;12.93;8.10;;;;;;;-0.77;86.74;97200.00;10298723;28;96939;-73
2022/01/01 07:30:39;;;;;;;10.40;5.75;;;;;;;-0.75;86.72;97198.22;10297354;28;96939;-73
2022/01/01 07:35:42;;;;;;;7.30;5.28;;;;;;;-0.76;86.60;97201.66;10298258;28;96928;-73
2022/01/01 07:40:47;;;;;;;8.68;5.45;;;;;;;-0.73;86.46;97205.84;10298267;28;96827;-73
2022/01/01 07:45:50;;;;;;;6.93;5.07;;;;;;;-0.82;86.78;97207.03;10298342;28;96688;-73
2022/01/01 07:50:53;;;;;;;9.73;4.60;;;;;;;-0.83;87.45;97207.91;10281819;28;96853;-73
2022/01/01 07:55:57;;;;;;;7.80;4.47;;;;;;;-0.73;87.36;97211.81;10297973;28;96762;-73
2022/01/01 08:01:01;;;;;;;9.07;5.10;;;;;;;-0.67;86.68;97209.94;10297369;28;97893;-73
2022/01/01 08:06:04;;;;;;;6.60;4.20;;;;;;;-0.67;87.10;97212.50;10294283;28;97261;-73
2022/01/01 08:11:08;;;;;;;10.90;5.10;;;;;;;-0.65;87.15;97215.84;10299576;28;96826;-73
2022/01/01 08:16:11;;;;;;;11.63;5.90;;;;;;;-0.57;87.13;97218.97;10296639;28;96673;-73
2022/01/01 08:21:14;;;;;;;8.25;5.63;;;;;;;-0.49;86.98;97231.50;10292102;28;97314;-73
2022/01/01 08:26:18;;;;;;;9.50;6.30;;;;;;;-0.45;87.04;97226.22;10299963;28;96866;-73
2022/01/01 08:31:21;;;;;;;12.77;9.05;;;;;;;-0.35;86.91;97234.44;10296483;28;96948;-73
2022/01/01 08:36:24;;;;;;;11.43;8.57;;;;;;;-0.29;87.21;97241.91;10293235;28;97205;-73
2022/01/01 08:41:28;;;;;;;15.23;9.15;;;;;;;-0.26;87.48;97233.25;10299565;28;97011;-73
2022/01/01 08:46:31;;;;;;;12.30;9.35;;;;;;;-0.12;87.19;97243.84;10295934;28;96729;-73
2022/01/01 08:51:36;;;;;;;9.95;6.97;;;;;;;-0.02;87.43;97227.19;10294169;28;96872;-73
2022/01/01 08:56:40;;;;;;;10.20;7.70;;;;;;;0.11;87.47;97237.00;10295570;28;98244;-73
2022/01/01 09:01:44;;;;;;;9.17;5.77;;;;;;;0.24;87.39;97238.22;10295594;28;96791;-73
2022/01/01 09:06:47;;;;;;;8.95;6.30;;;;;;;0.39;87.57;97235.03;10295046;28;96803;-73
2022/01/01 09:11:51;;;;;;;5.82;4.57;;;;;;;0.47;87.47;97242.44;10294132;28;96775;-73
2022/01/01 09:16:54;;;;;;;5.75;4.45;;;;;;;0.52;87.63;97240.53;10295042;28;96743;-73
2022/01/01 09:21:57;;;;;;;6.82;4.88;;;;;;;0.55;87.71;97242.97;10295030;28;96963;-74
2022/01/01 09:27:01;;;;;;;7.20;4.90;;;;;;;0.66;87.43;97247.69;10293262;28;96891;-73
2022/01/01 09:32:06;;;;;;;7.15;4.75;;;;;;;0.69;87.68;97245.00;10296333;28;97958;-73
2022/01/01 09:37:09;;;;;;;8.47;5.63;;;;;;;0.78;87.58;97252.31;10294919;28;96780;-73
2022/01/01 09:42:14;;;;;;;10.43;5.90;;;;;;;0.91;87.72;97251.81;10290400;28;97233;-74
2022/01/01 09:47:17;;;;;;;11.13;7.18;;;;;;;1.14;87.69;97261.16;10296296;28;96877;-73
2022/01/01 09:52:20;;;;;;;9.07;6.70;;;;;;;1.26;87.71;97249.50;10294193;28;96842;-73
2022/01/01 09:57:24;;;;;;;10.02;6.80;;;;;;;1.39;87.68;97250.66;10290029;28;96743;-73
2022/01/01 10:02:28;;;;;;;9.93;6.85;;;;;;;1.49;87.35;97254.50;10295856;28;97043;-73
2022/01/01 10:07:31;;;;;;;12.75;8.52;;;;;;;1.66;87.42;97252.91;10293760;28;96671;-73
2022/01/01 10:12:41;;;;;;;15.98;10.20;;;;;;;1.93;87.32;97254.25;10291418;28;96847;-73
2022/01/01 10:17:45;;;;;;;12.93;8.57;;;;;;;2.14;87.18;97254.19;10293710;28;96806;-73
2022/01/01 10:22:50;;;;;;;16.23;9.77;;;;;;;2.37;87.25;97254.84;10292882;28;96862;-73
2022/01/01 10:27:57;;;;;;;18.05;10.80;;;;;;;2.61;87.31;97253.69;10293153;28;96884;-74
2022/01/01 10:33:02;;;;;;;15.55;10.88;;;;;;;2.69;86.91;97249.00;10290791;28;96943;-74
2022/01/01 10:38:06;;;;;;;14.70;10.07;;;;;;;2.83;86.90;97250.09;10295446;28;97319;-74
2022/01/01 10:43:11;;;;;;;13.70;9.57;;;;;;;2.89;86.28;97239.44;10291878;28;98485;-74
2022/01/01 10:48:21;;;;;;;14.25;9.38;;;;;;;3.11;86.39;97235.81;10290861;28;99848;-74
2022/01/01 10:53:26;;;;;;;17.48;10.88;;;;;;;3.36;86.92;97225.06;10288225;28;96846;-73
2022/01/01 10:58:34;;;;;;;13.85;9.63;;;;;;;3.61;87.01;97222.03;10292110;28;96772;-73
2022/01/01 11:03:39;;;;;;;13.80;9.60;;;;;;;3.75;86.46;97223.91;10290295;28;97274;-73
2022/01/01 11:08:42;;;;;;;;;;;;;;;3.85;86.80;97221.66;10292863;28;98147;-73
2022/01/01 11:13:47;;;;;;;11.43;8.48;;;;;;;3.99;86.47;97203.66;10292688;28;97113;-73
2022/01/01 11:18:50;;;;;;;13.13;8.82;;;;;;;4.15;86.40;97211.41;10291870;28;96782;-73
2022/01/01 11:23:53;;;;;;;12.98;9.27;;;;;;;4.27;86.36;97199.56;10274086;28;96871;-73
2022/01/01 11:28:58;;;;;;;12.55;8.68;;;;;;;4.44;86.35;97201.19;10293155;28;96807;-73
2022/01/01 11:34:01;;;;;;;10.88;8.82;;;;;;;4.58;86.39;97188.31;10292045;28;97868;-73
2022/01/01 11:39:05;;;;;;;13.88;8.75;;;;;;;4.72;85.95;97184.94;10288953;28;97215;-73
2022/01/01 11:44:29;;;;;;;10.80;8.07;;;;;;;4.86;85.57;97177.19;10293567;28;96892;-73
2022/01/01 11:49:34;;;;;;;14.15;9.55;;;;;;;4.99;85.44;97177.31;10291183;28;96648;-75
2022/01/01 11:55:00;;;;;;;11.05;7.93;;;;;;;5.11;85.17;97160.22;10294063;28;96718;-73
2022/01/01 12:00:13;;;;;;;11.20;8.18;;;;;;;5.26;84.85;97143.75;10279810;28;97038;-75
2022/01/01 12:05:29;;;;;;;11.00;7.13;;;;;;;5.34;84.47;97136.38;10301661;28;96856;-73
2022/01/01 12:10:35;;;;;;;11.77;8.00;;;;;;;5.45;84.64;97132.28;10297365;28;96731;-73
2022/01/01 12:15:43;;;;;;;12.00;8.23;;;;;;;5.51;84.25;97130.16;10295508;28;101354;-73
2022/01/01 12:20:50;;;;;;;10.82;7.82;;;;;;;5.50;84.79;97119.88;10296289;28;96818;-73
2022/01/01 12:25:56;;;;;;;12.80;7.90;;;;;;;5.70;83.83;97111.72;10297642;28;96787;-73
2022/01/01 12:31:08;;;;;;;12.20;8.55;;;;;;;5.84;83.31;97107.38;10297070;28;96850;-73
2022/01/01 12:36:27;;;;;;;12.50;7.90;;;;;;;5.85;82.92;97102.09;10292685;28;96842;-73
2022/01/01 12:41:32;;;;;;;12.02;8.73;;;;;;;6.04;83.01;97098.34;10298898;28;97009;-73
2022/01/01 12:46:38;;;;;;;12.10;8.25;;;;;;;6.20;82.58;97099.00;10296282;28;96951;-73
2022/01/01 12:51:41;;;;;;;14.38;7.97;;;;;;;6.30;81.80;97093.25;10294473;28;97007;-73
2022/01/01 12:56:46;;;;;;;11.75;8.07;;;;;;;6.41;81.76;97080.38;10297007;28;96811;-73
2022/01/01 13:01:53;;;;;;;12.77;8.05;;;;;;;6.50;81.45;97073.75;10298121;28;96923;-73
2022/01/01 13:06:59;;;;;;;12.52;8.73;;;;;;;6.64;81.13;97068.47;10294560;28;96854;-73
2022/01/01 13:12:04;;;;;;;11.10;7.80;;;;;;;6.71;81.32;97061.09;10292515;28;96970;-73
2022/01/01 13:17:09;;;;;;;11.52;7.72;;;;;;;6.80;81.22;97056.13;10296923;28;96867;-73
2022/01/01 13:22:12;;;;;;;12.23;7.57;;;;;;;6.95;80.65;97048.22;10294692;28;96844;-73
2022/01/01 13:27:15;;;;;;;10.10;7.88;;;;;;;7.05;80.05;97044.06;10291446;28;96871;-73
2022/01/01 13:32:19;;;;;;;13.60;8.43;;;;;;;7.20;79.58;97032.63;10298235;28;96984;-73
2022/01/01 13:37:25;;;;;;;12.83;9.03;;;;;;;7.31;79.44;97034.47;10294315;28;96894;-73
2022/01/01 13:42:28;;;;;;;12.02;9.07;;;;;;;7.40;79.29;97022.59;10291350;28;97162;-73
2022/01/01 13:47:33;;;;;;;15.40;10.55;;;;;;;7.47;78.43;97018.59;10297342;28;96777;-73
2022/01/01 13:52:37;;;;;;;13.75;8.63;;;;;;;7.48;78.25;97015.06;10293652;28;96983;-73
2022/01/01 13:57:51;;;;;;;12.35;8.68;;;;;;;7.52;78.17;97019.09;10292981;28;96902;-73
2022/01/01 14:02:55;;;;;;;11.57;7.97;;;;;;;7.52;78.50;97006.09;10275083;28;96926;-73
2022/01/01 14:08:11;;;;;;;13.40;9.53;;;;;;;7.56;78.42;97010.16;10294577;28;96790;-73
2022/01/01 14:13:14;;;;;;;13.43;8.93;;;;;;;7.62;77.66;97010.66;10294003;28;96839;-73
2022/01/01 14:18:27;;;;;;;11.75;8.70;;;;;;;7.70;77.31;96997.91;10289257;28;96831;-73
2022/01/01 14:23:32;;;;;;;12.38;9.02;;;;;;;7.74;76.64;96989.78;10290104;28;96700;-73
2022/01/01 14:28:36;;;;;;;13.30;9.02;;;;;;;7.84;76.43;96984.75;10293270;28;97008;-73
2022/01/01 14:33:40;;;;;;;14.00;9.05;;;;;;;7.81;76.91;96984.97;10291538;28;97104;-73
2022/01/01 14:38:45;;;;;;;13.10;8.98;;;;;;;7.81;76.57;96984.97;10294352;28;96912;-73
2022/01/01 14:43:48;;;;;;;13.07;8.57;;;;;;;7.77;76.35;96980.91;10292992;28;96707;-73
2022/01/01 14:48:59;;;;;;;11.73;8.18;;;;;;;7.84;76.20;96989.97;10292223;28;96738;-73
2022/01/01 14:54:24;;;;;;;13.40;8.90;;;;;;;7.78;75.85;96985.19;10273181;28;96714;-72
2022/01/01 14:59:34;;;;;;;11.93;8.02;;;;;;;7.86;75.26;96982.06;10288552;28;97129;-73
2022/01/01 15:04:39;;;;;;;12.20;7.57;;;;;;;7.89;74.80;96982.66;10291464;28;97098;-73
2022/01/01 15:09:44;;;;;;;12.75;7.80;;;;;;;7.91;75.29;96982.50;10290654;28;97267;-73
2022/01/01 15:14:48;;;;;;;13.63;7.93;;;;;;;7.90;74.29;96973.88;10291974;28;96726;-73
2022/01/01 15:19:53;;;;;;;14.23;8.27;;;;;;;7.90;74.24;96973.88;10292299;28;96850;-73
2022/01/01 15:24:59;;;;;;;12.30;7.97;;;;;;;7.86;74.08;96975.06;10291801;28;96941;-73
2022/01/01 15:30:09;;;;;;;12.02;7.88;;;;;;;7.80;74.22;96975.50;10293922;28;100034;-73
2022/01/01 15:35:25;;;;;;;10.70;8.02;;;;;;;7.73;73.75;96966.50;10300857;28;96811;-72
2022/01/01 15:40:30;;;;;;;13.98;8.20;;;;;;;7.62;73.60;96969.06;10298424;28;96754;-73
2022/01/01 15:45:34;;;;;;;12.75;7.82;;;;;;;7.48;73.82;96968.28;10294333;28;98204;-73
2022/01/01 15:50:41;;;;;;;12.30;8.20;;;;;;;7.34;73.63;96973.66;10299360;28;96849;-72
2022/01/01 15:55:50;;;;;;;13.02;8.38;;;;;;;7.20;73.83;96969.44;10297529;28;97010;-72
2022/01/01 16:01:01;;;;;;;17.27;9.45;;;;;;;7.04;74.21;96974.84;10297108;28;96797;-72
2022/01/01 16:06:06;;;;;;;11.30;7.38;;;;;;;6.83;74.62;96980.59;10295732;28;98131;-72
2022/01/01 16:11:12;;;;;;;11.70;7.77;;;;;;;6.66;75.40;96976.56;10299656;28;96850;-72
2022/01/01 16:16:16;;;;;;;13.02;8.07;;;;;;;6.52;75.39;96983.63;10297251;28;96878;-72
2022/01/01 16:21:22;;;;;;;11.10;6.75;;;;;;;6.32;76.44;96983.22;10294093;28;97225;-72
2022/01/01 16:26:25;;;;;;;9.55;6.28;;;;;;;6.04;77.17;96985.03;10292813;28;98547;-72
2022/01/01 16:31:28;;;;;;;9.50;5.82;;;;;;;5.87;77.89;96987.91;10296634;28;97134;-72
2022/01/01 16:36:32;;;;;;;10.77;7.18;;;;;;;5.72;78.58;96981.94;10293042;28;96736;-73
2022/01/01 16:41:51;;;;;;;10.47;6.67;;;;;;;5.58;78.87;96982.03;10296941;28;96847;-72
2022/01/01 16:47:04;;;;;;;6.63;4.82;;;;;;;5.31;79.53;96991.47;10297374;28;96870;-73
2022/01/01 16:52:33;;;;;;;13.20;6.80;;;;;;;5.15;79.91;96985.59;10296363;28;96717;-73
2022/01/01 16:57:38;;;;;;;10.82;6.65;;;;;;;5.11;79.84;96994.47;10293559;28;96895;-73
2022/01/01 17:02:42;;;;;;;10.77;5.93;;;;;;;4.95;80.18;96999.75;10296540;28;97076;-72
2022/01/01 17:07:47;;;;;;;;;;;;;;;4.79;80.46;97004.22;10296365;28;99848;-72
2022/01/01 17:12:51;;;;;;;10.52;6.82;;;;;;;4.69;80.06;96991.00;10296226;28;98662;-72
2022/01/01 17:18:07;;;;;;;12.82;7.32;;;;;;;4.66;80.08;97004.94;10277985;28;96788;-72
2022/01/01 17:23:22;;;;;;;10.07;6.90;;;;;;;4.36;81.02;96992.09;10297744;28;96853;-72
2022/01/01 17:28:30;;;;;;;;;;;;;;;4.27;80.97;97002.97;10294575;28;96870;-73
2022/01/01 17:33:46;;;;;;;13.30;9.10;;;;;;;4.20;80.58;97000.75;10292270;28;97251;-72
2022/01/01 17:44:16;;;;;;;11.32;7.53;;;;;;;4.05;81.24;97003.41;10297608;28;96816;-72
2022/01/01 17:49:25;;;;;;;14.63;9.07;;;;;;;3.83;81.65;97004.63;10294598;28;97481;-73
2022/01/01 17:54:32;;;;;;;14.35;9.38;;;;;;;3.79;81.57;97001.38;10290812;28;97150;-72
2022/01/01 17:59:36;;;;;;;;;;;;;;;3.73;81.57;97006.91;10295777;28;96821;-73
2022/01/01 18:04:39;;;;;;;10.90;6.90;;;;;;;3.66;81.92;97015.06;10294306;28;96947;-73
2022/01/01 18:09:51;;;;;;;11.48;7.43;;;;;;;3.53;82.05;97014.94;10292370;28;99582;-72
2022/01/01 18:14:57;;;;;;;11.10;6.55;;;;;;;3.48;82.03;97020.34;10277198;28;96878;-72
2022/01/01 18:20:06;;;;;;;13.98;8.77;;;;;;;3.42;82.02;97021.50;10295677;28;96865;-72
2022/01/01 18:25:14;;;;;;;14.75;8.50;;;;;;;3.13;82.64;97019.69;10293628;28;97191;-73
2022/01/01 18:30:18;;;;;;;16.55;9.95;;;;;;;3.11;82.44;97017.19;10289480;28;96847;-73
2022/01/01 18:35:21;;;;;;;13.27;8.40;;;;;;;3.15;83.00;97017.84;10288088;28;96907;-72
2022/01/01 18:40:27;;;;;;;17.60;10.73;;;;;;;3.11;83.23;97017.19;10292985;28;96818;-72
2022/01/01 18:45:30;;;;;;;13.32;9.45;;;;;;;3.06;82.95;97020.00;10289925;28;96702;-73
2022/01/01 18:50:39;;;;;;;12.40;8.80;;;;;;;2.95;83.37;97024.94;10294509;28;96732;-72
2022/01/01 18:55:44;;;;;;;14.07;8.75;;;;;;;2.91;83.01;97017.41;10292798;28;96922;-72
2022/01/01 19:00:52;;;;;;;11.68;8.32;;;;;;;2.87;83.12;97016.75;10291578;28;96784;-72
2022/01/01 19:05:58;;;;;;;12.82;8.93;;;;;;;2.82;83.28;97021.31;10280414;28;97350;-72
2022/01/01 19:11:05;;;;;;;16.60;10.15;;;;;;;2.76;83.99;97019.06;10301633;28;96865;-72
2022/01/01 19:16:08;;;;;;;13.23;8.15;;;;;;;2.73;83.52;97024.38;10298870;28;96693;-72
2022/01/01 19:21:11;;;;;;;11.50;8.07;;;;;;;2.66;83.55;97022.09;10296257;28;96880;-72
2022/01/01 19:26:16;;;;;;;12.00;7.90;;;;;;;2.62;83.80;97010.28;10301475;28;102339;-72
2022/01/01 19:31:21;;;;;;;10.73;5.82;;;;;;;2.43;83.30;97015.56;10299094;28;96846;-72
2022/01/01 19:36:24;;;;;;;10.00;5.40;;;;;;;2.23;83.69;97024.34;10294683;28;96903;-72
2022/01/01 19:41:34;;;;;;;15.95;8.43;;;;;;;2.26;83.60;97019.00;10301101;28;96831;-72
2022/01/01 19:46:42;;;;;;;18.50;10.95;;;;;;;2.24;83.55;97015.66;10298805;28;97005;-72
2022/01/01 19:51:45;;;;;;;20.23;13.40;;;;;;;2.25;83.80;97022.50;10298821;28;97123;-72
2022/01/01 19:56:50;;;;;;;12.10;6.72;;;;;;;2.14;83.98;97022.19;10297747;28;96770;-72
2022/01/01 20:01:53;;;;;;;8.43;5.97;;;;;;;2.13;83.99;97017.97;10297560;28;96843;-72
2022/01/01 20:06:57;;;;;;;8.82;5.85;;;;;;;2.07;83.55;97013.09;10297590;28;97086;-72
2022/01/01 20:12:01;;;;;;;13.75;8.60;;;;;;;1.85;84.36;97009.03;10295746;28;97649;-72
2022/01/01 20:17:07;;;;;;;7.82;5.40;;;;;;;1.84;84.55;97011.66;10298052;28;96872;-72
2022/01/01 20:22:11;;;;;;;11.15;6.80;;;;;;;1.84;83.39;97017.66;10296873;28;96735;-72
2022/01/01 20:27:15;;;;;;;10.98;7.47;;;;;;;1.76;84.15;97014.59;10293246;28;96749;-72
2022/01/01 20:32:19;;;;;;;13.23;8.87;;;;;;;1.65;83.87;97011.72;10300356;28;96854;-72
2022/01/01 20:37:22;;;;;;;13.45;8.23;;;;;;;1.53;84.47;97013.97;10297209;28;96917;-72
2022/01/01 20:42:27;;;;;;;15.82;9.68;;;;;;;1.53;84.07;97011.38;10293330;28;96801;-72
2022/01/01 20:47:29;;;;;;;12.98;7.93;;;;;;;1.59;84.27;97012.00;10298644;28;96832;-72
2022/01/01 20:52:32;;;;;;;13.15;9.02;;;;;;;1.56;84.05;97008.66;10294896;28;96783;-72
2022/01/01 20:57:36;;;;;;;15.07;9.88;;;;;;;1.50;84.21;97002.97;10294007;28;96749;-72
2022/01/01 21:02:43;;;;;;;16.95;11.02;;;;;;;1.48;84.48;96997.06;10296776;28;96866;-72
2022/01/01 21:07:48;;;;;;;15.57;10.18;;;;;;;1.43;84.19;97001.59;10295219;28;96694;-72
2022/01/01 21:12:53;;;;;;;15.77;9.73;;;;;;;1.37;84.01;96997.59;10295794;28;96684;-72
2022/01/01 21:17:57;;;;;;;13.43;8.88;;;;;;;1.34;84.31;97002.88;10277198;28;96879;-72
2022/01/01 21:23:02;;;;;;;13.77;8.95;;;;;;;1.34;84.61;97008.03;10297756;28;97723;-72
2022/01/01 21:28:07;;;;;;;13.13;7.82;;;;;;;1.28;84.46;97004.00;10295367;28;97008;-72
2022/01/01 21:33:10;;;;;;;16.00;10.60;;;;;;;1.26;84.24;96994.66;10292080;28;99413;-72
2022/01/01 21:38:13;;;;;;;17.80;11.38;;;;;;;1.18;84.67;97003.59;10297052;28;96668;-72
2022/01/01 21:43:18;;;;;;;14.00;9.48;;;;;;;1.13;84.27;96994.41;10293671;28;96869;-73
2022/01/01 21:48:22;;;;;;;10.80;8.02;;;;;;;1.03;84.56;96993.16;10289679;28;97014;-72
2022/01/01 21:53:25;;;;;;;16.52;11.20;;;;;;;0.99;84.88;96995.06;10297565;28;97290;-72
2022/01/01 21:58:31;;;;;;;17.83;9.55;;;;;;;0.90;85.06;96987.75;10293940;28;96659;-72
2022/01/01 22:03:34;;;;;;;13.88;8.63;;;;;;;0.91;84.90;96985.09;10290946;28;96752;-72
2022/01/01 22:08:37;;;;;;;16.20;10.10;;;;;;;0.86;84.69;96991.34;10295385;28;96876;-72
2022/01/01 22:13:41;;;;;;;14.63;8.82;;;;;;;0.83;84.62;96981.19;10293984;28;97430;-72
2022/01/01 22:18:44;;;;;;;13.85;9.02;;;;;;;0.84;85.07;96993.19;10292659;28;96946;-72
2022/01/01 22:23:47;;;;;;;15.35;9.73;;;;;;;0.75;84.65;96995.25;10293683;28;96857;-72
2022/01/01 22:28:51;;;;;;;15.73;9.35;;;;;;;0.70;84.52;96989.47;10292079;28;96831;-72
2022/01/01 22:33:54;;;;;;;15.50;9.90;;;;;;;0.68;84.14;97000.75;10291358;28;96719;-72
2022/01/01 22:38:57;;;;;;;14.40;10.10;;;;;;;0.61;84.75;96997.59;10290878;28;96979;-72
2022/01/01 22:44:02;;;;;;;16.63;9.77;;;;;;;0.57;84.55;96994.34;10294329;28;96856;-72
2022/01/01 22:49:04;;;;;;;20.42;12.90;;;;;;;0.53;84.51;96999.69;10292651;28;96994;-72
2022/01/01 22:54:07;;;;;;;18.33;10.70;;;;;;;0.54;84.99;96993.66;10290220;28;97174;-73
2022/01/01 22:59:12;;;;;;;16.95;11.73;;;;;;;0.51;84.50;96991.19;10295042;28;96822;-72
2022/01/01 23:04:15;;;;;;;21.97;13.07;;;;;;;0.47;84.85;96989.69;10292613;28;96963;-72
2022/01/01 23:09:22;;;;;;;27.98;16.27;;;;;;;0.35;84.99;96980.75;10289236;28;96925;-72
2022/01/01 23:14:27;;;;;;;17.67;10.52;;;;;;;0.19;85.13;96980.59;10287136;28;96973;-72
2022/01/01 23:19:30;;;;;;;18.05;10.38;;;;;;;0.19;85.11;96976.28;10291902;28;96731;-72
2022/01/01 23:24:35;;;;;;;20.30;10.55;;;;;;;0.25;84.75;96970.03;10288851;28;96733;-72
2022/01/01 23:29:41;;;;;;;14.47;9.13;;;;;;;0.19;85.17;96973.72;10292693;28;97104;-72
2022/01/01 23:34:51;;;;;;;12.80;8.55;;;;;;;0.11;85.62;96975.75;10291050;28;97054;-72
2022/01/01 23:39:57;;;;;;;12.73;8.00;;;;;;;0.17;85.23;96966.97;10291597;28;96780;-73
2022/01/01 23:45:02;;;;;;;13.77;8.70;;;;;;;0.21;85.37;96950.53;10289435;28;97218;-72